N222HL KFLL-KATL
Flight info
| Callsign | N222HL |
|---|---|
| Flight time | 1h 23m |
| Altitude | 40000 |
| Route | FRSBE2 STYMY Q77 SHRKS LAIRI LARZZ JJEDI4 |
| Aircraft | CL60/M-SBDE1E2E3FGHIJ1J4J5J7M3RWXYZ/LB1V1D1 |
Departure
| Time | 2026-05-03 23:43 |
|---|---|
| Airport | Fort Lauderdale Hollywood International Airport (KFLL) |
Arrival
| Time | 2026-05-04 01:07 |
|---|---|
| Airport | Hartsfield Jackson Atlanta International Airport (KATL) |
| Time | Latitude | Longitude | Altitude | Speed | Heading |
|---|---|---|---|---|---|
| 2026-05-03 22:15 | 26.06863 | -80.15444 | 11 ft | 0 kts | 315° |
| 2026-05-03 22:35 | 26.06868 | -80.15449 | 11 ft | 2 kts | 333° |
| 2026-05-03 22:35 | 26.06896 | -80.15438 | 11 ft | 6 kts | 42° |
| 2026-05-03 22:35 | 26.06913 | -80.15398 | 11 ft | 0 kts | 79° |
| 2026-05-03 22:36 | 26.06913 | -80.15397 | 11 ft | 0 kts | 79° |
| 2026-05-03 22:36 | 26.06913 | -80.15395 | 11 ft | 0 kts | 81° |
| 2026-05-03 22:36 | 26.06913 | -80.15394 | 11 ft | 0 kts | 85° |
| 2026-05-03 22:37 | 26.06914 | -80.15393 | 11 ft | 0 kts | 85° |
| 2026-05-03 22:37 | 26.06914 | -80.15380 | 11 ft | 0 kts | 88° |
| 2026-05-03 22:37 | 26.06914 | -80.15379 | 11 ft | 0 kts | 89° |
| 2026-05-03 22:38 | 26.06914 | -80.15377 | 11 ft | 0 kts | 89° |
| 2026-05-03 22:40 | 26.06924 | -80.15323 | 11 ft | 11 kts | 54° |
| 2026-05-03 22:40 | 26.07008 | -80.15303 | 11 ft | 14 kts | 0° |
| 2026-05-03 22:41 | 26.07120 | -80.15301 | 11 ft | 17 kts | 1° |
| 2026-05-03 22:41 | 26.07249 | -80.15301 | 11 ft | 20 kts | 0° |
| 2026-05-03 22:41 | 26.07393 | -80.15299 | 11 ft | 16 kts | 1° |
| 2026-05-03 22:41 | 26.07489 | -80.15336 | 11 ft | 13 kts | 279° |
| 2026-05-03 22:42 | 26.07489 | -80.15451 | 11 ft | 16 kts | 272° |
| 2026-05-03 22:42 | 26.07493 | -80.15592 | 11 ft | 20 kts | 271° |
| 2026-05-03 22:42 | 26.07494 | -80.15755 | 11 ft | 20 kts | 271° |
| 2026-05-03 22:42 | 26.07495 | -80.15869 | 11 ft | 11 kts | 270° |
| 2026-05-03 22:43 | 26.07495 | -80.15912 | 11 ft | 0 kts | 270° |
| 2026-05-03 22:43 | 26.07495 | -80.15919 | 11 ft | 0 kts | 270° |
| 2026-05-03 22:43 | 26.07495 | -80.15927 | 11 ft | 1 kts | 270° |
| 2026-05-03 22:43 | 26.07495 | -80.15933 | 11 ft | 0 kts | 270° |
| 2026-05-03 22:44 | 26.07495 | -80.15939 | 11 ft | 0 kts | 270° |
| 2026-05-03 22:44 | 26.07495 | -80.15942 | 11 ft | 0 kts | 270° |
| 2026-05-03 22:44 | 26.07495 | -80.15945 | 11 ft | 1 kts | 270° |
| 2026-05-03 22:44 | 26.07495 | -80.15948 | 11 ft | 0 kts | 270° |
| 2026-05-03 22:45 | 26.07495 | -80.15951 | 11 ft | 0 kts | 270° |
| 2026-05-03 22:45 | 26.07495 | -80.15954 | 11 ft | 0 kts | 270° |
| 2026-05-03 22:45 | 26.07495 | -80.15957 | 11 ft | 0 kts | 271° |
| 2026-05-03 22:45 | 26.07495 | -80.15959 | 11 ft | 0 kts | 271° |
| 2026-05-03 22:46 | 26.07495 | -80.15962 | 11 ft | 0 kts | 271° |
| 2026-05-03 22:49 | 26.07495 | -80.15963 | 11 ft | 0 kts | 271° |
| 2026-05-03 22:51 | 26.07495 | -80.15968 | 11 ft | 1 kts | 271° |
| 2026-05-03 22:51 | 26.07495 | -80.16000 | 11 ft | 6 kts | 270° |
| 2026-05-03 22:51 | 26.07496 | -80.16053 | 11 ft | 5 kts | 270° |
| 2026-05-03 22:52 | 26.07496 | -80.16095 | 11 ft | 6 kts | 270° |
| 2026-05-03 22:52 | 26.07496 | -80.16124 | 11 ft | 4 kts | 270° |
| 2026-05-03 22:52 | 26.07496 | -80.16144 | 11 ft | 2 kts | 270° |
| 2026-05-03 22:52 | 26.07496 | -80.16145 | 11 ft | 0 kts | 270° |
| 2026-05-03 22:57 | 26.07496 | -80.16148 | 11 ft | 1 kts | 270° |
| 2026-05-03 22:57 | 26.07496 | -80.16180 | 11 ft | 6 kts | 270° |
| 2026-05-03 22:58 | 26.07496 | -80.16192 | 11 ft | 0 kts | 270° |
| 2026-05-03 22:59 | 26.07496 | -80.16193 | 11 ft | 1 kts | 271° |
| 2026-05-03 22:59 | 26.07497 | -80.16204 | 11 ft | 1 kts | 270° |
| 2026-05-03 22:59 | 26.07497 | -80.16212 | 11 ft | 0 kts | 270° |
| 2026-05-03 22:59 | 26.07497 | -80.16216 | 11 ft | 0 kts | 270° |
| 2026-05-03 23:00 | 26.07497 | -80.16227 | 11 ft | 3 kts | 270° |
| 2026-05-03 23:00 | 26.07497 | -80.16258 | 11 ft | 1 kts | 270° |
| 2026-05-03 23:00 | 26.07497 | -80.16265 | 11 ft | 0 kts | 270° |
| 2026-05-03 23:01 | 26.07497 | -80.16272 | 11 ft | 0 kts | 270° |
| 2026-05-03 23:01 | 26.07497 | -80.16273 | 11 ft | 0 kts | 270° |
| 2026-05-03 23:01 | 26.07497 | -80.16286 | 11 ft | 3 kts | 270° |
| 2026-05-03 23:01 | 26.07497 | -80.16307 | 11 ft | 0 kts | 270° |
| 2026-05-03 23:02 | 26.07497 | -80.16314 | 11 ft | 0 kts | 270° |
| 2026-05-03 23:02 | 26.07497 | -80.16317 | 11 ft | 1 kts | 270° |
| 2026-05-03 23:02 | 26.07497 | -80.16320 | 11 ft | 0 kts | 270° |
| 2026-05-03 23:05 | 26.07497 | -80.16322 | 11 ft | 1 kts | 270° |
| 2026-05-03 23:05 | 26.07497 | -80.16335 | 11 ft | 2 kts | 271° |
| 2026-05-03 23:06 | 26.07497 | -80.16344 | 11 ft | 2 kts | 271° |
| 2026-05-03 23:06 | 26.07497 | -80.16351 | 11 ft | 0 kts | 271° |
| 2026-05-03 23:06 | 26.07497 | -80.16360 | 11 ft | 2 kts | 270° |
| 2026-05-03 23:06 | 26.07498 | -80.16385 | 11 ft | 3 kts | 271° |
| 2026-05-03 23:07 | 26.07498 | -80.16399 | 11 ft | 1 kts | 271° |
| 2026-05-03 23:07 | 26.07498 | -80.16403 | 11 ft | 0 kts | 271° |
| 2026-05-03 23:11 | 26.07498 | -80.16406 | 11 ft | 2 kts | 270° |
| 2026-05-03 23:11 | 26.07498 | -80.16438 | 11 ft | 5 kts | 269° |
| 2026-05-03 23:11 | 26.07498 | -80.16484 | 11 ft | 5 kts | 270° |
| 2026-05-03 23:11 | 26.07498 | -80.16501 | 11 ft | 0 kts | 270° |
| 2026-05-03 23:12 | 26.07498 | -80.16505 | 11 ft | 0 kts | 270° |
| 2026-05-03 23:12 | 26.07498 | -80.16512 | 11 ft | 2 kts | 270° |
| 2026-05-03 23:12 | 26.07498 | -80.16518 | 11 ft | 0 kts | 270° |
| 2026-05-03 23:12 | 26.07498 | -80.16523 | 11 ft | 1 kts | 270° |
| 2026-05-03 23:13 | 26.07498 | -80.16527 | 11 ft | 1 kts | 270° |
| 2026-05-03 23:13 | 26.07498 | -80.16531 | 11 ft | 1 kts | 270° |
| 2026-05-03 23:13 | 26.07498 | -80.16544 | 11 ft | 3 kts | 270° |
| 2026-05-03 23:13 | 26.07498 | -80.16569 | 11 ft | 0 kts | 270° |
| 2026-05-03 23:14 | 26.07498 | -80.16576 | 11 ft | 0 kts | 271° |
| 2026-05-03 23:14 | 26.07499 | -80.16578 | 11 ft | 0 kts | 271° |
| 2026-05-03 23:14 | 26.07499 | -80.16582 | 11 ft | 0 kts | 271° |
| 2026-05-03 23:14 | 26.07499 | -80.16588 | 11 ft | 0 kts | 271° |
| 2026-05-03 23:15 | 26.07499 | -80.16592 | 11 ft | 0 kts | 271° |
| 2026-05-03 23:16 | 26.07499 | -80.16593 | 11 ft | 0 kts | 271° |
| 2026-05-03 23:35 | 26.07499 | -80.16600 | 11 ft | 2 kts | 271° |
| 2026-05-03 23:35 | 26.07507 | -80.16631 | 11 ft | 4 kts | 309° |
| 2026-05-03 23:36 | 26.07514 | -80.16638 | 11 ft | 0 kts | 333° |
| 2026-05-03 23:36 | 26.07515 | -80.16638 | 11 ft | 0 kts | 333° |
| 2026-05-03 23:39 | 26.07515 | -80.16639 | 11 ft | 2 kts | 334° |
| 2026-05-03 23:39 | 26.07593 | -80.16646 | 11 ft | 5 kts | 1° |
| 2026-05-03 23:39 | 26.07597 | -80.16645 | 11 ft | 0 kts | 1° |
| 2026-05-03 23:41 | 26.07621 | -80.16644 | 11 ft | 8 kts | 2° |
| 2026-05-03 23:42 | 26.07694 | -80.16602 | 11 ft | 7 kts | 83° |
| 2026-05-03 23:42 | 26.07694 | -80.16585 | 11 ft | 1 kts | 90° |
| 2026-05-03 23:42 | 26.07694 | -80.16581 | 11 ft | 0 kts | 90° |
| 2026-05-03 23:42 | 26.07694 | -80.16579 | 11 ft | 0 kts | 90° |
| 2026-05-03 23:43 | 26.07694 | -80.16575 | 11 ft | 6 kts | 90° |
| 2026-05-03 23:43 | 26.07691 | -80.16131 | 11 ft | 113 kts | 90° |
| 2026-05-03 23:43 | 26.07678 | -80.14950 | 306 ft | 177 kts | 89° |
| 2026-05-03 23:43 | 26.07655 | -80.13517 | 1220 ft | 204 kts | 88° |
| 2026-05-03 23:44 | 26.07636 | -80.11871 | 2330 ft | 230 kts | 89° |
| 2026-05-03 23:44 | 26.07756 | -80.10034 | 3400 ft | 256 kts | 76° |
| 2026-05-03 23:44 | 26.08451 | -80.08111 | 3961 ft | 281 kts | 55° |
| 2026-05-03 23:44 | 26.09892 | -80.06720 | 3941 ft | 272 kts | 24° |
| 2026-05-03 23:45 | 26.11647 | -80.05975 | 3892 ft | 268 kts | 17° |
| 2026-05-03 23:45 | 26.13411 | -80.05306 | 3892 ft | 269 kts | 16° |
| 2026-05-03 23:45 | 26.15327 | -80.04916 | 4227 ft | 296 kts | 356° |
| 2026-05-03 23:45 | 26.17349 | -80.05332 | 5727 ft | 296 kts | 340° |
| 2026-05-03 23:46 | 26.19219 | -80.06007 | 7404 ft | 289 kts | 337° |
| 2026-05-03 23:46 | 26.21017 | -80.06815 | 8970 ft | 282 kts | 325° |
| 2026-05-03 23:46 | 26.22333 | -80.08324 | 10286 ft | 277 kts | 298° |
| 2026-05-03 23:46 | 26.23268 | -80.10169 | 11543 ft | 281 kts | 295° |
| 2026-05-03 23:47 | 26.24202 | -80.12099 | 12497 ft | 291 kts | 294° |
| 2026-05-03 23:47 | 26.25144 | -80.14120 | 12982 ft | 297 kts | 293° |
| 2026-05-03 23:47 | 26.26106 | -80.16137 | 12980 ft | 293 kts | 295° |
| 2026-05-03 23:47 | 26.27119 | -80.18106 | 13012 ft | 293 kts | 295° |
| 2026-05-03 23:48 | 26.28137 | -80.20077 | 13050 ft | 291 kts | 295° |
| 2026-05-03 23:48 | 26.29150 | -80.22043 | 13109 ft | 292 kts | 295° |
| 2026-05-03 23:48 | 26.30193 | -80.24094 | 13432 ft | 318 kts | 296° |
| 2026-05-03 23:48 | 26.31335 | -80.26184 | 14873 ft | 313 kts | 297° |
| 2026-05-03 23:49 | 26.32442 | -80.28134 | 16364 ft | 302 kts | 297° |
| 2026-05-03 23:49 | 26.33544 | -80.30084 | 17636 ft | 297 kts | 297° |
| 2026-05-03 23:49 | 26.34629 | -80.32008 | 18648 ft | 300 kts | 296° |
| 2026-05-03 23:49 | 26.35735 | -80.33968 | 19582 ft | 304 kts | 296° |
| 2026-05-03 23:50 | 26.36869 | -80.35980 | 20481 ft | 308 kts | 296° |
| 2026-05-03 23:50 | 26.37623 | -80.37315 | 21016 ft | 312 kts | 296° |
| 2026-05-03 23:50 | 26.39157 | -80.40035 | 22140 ft | 316 kts | 295° |
| 2026-05-03 23:50 | 26.40332 | -80.42116 | 22958 ft | 320 kts | 295° |
| 2026-05-03 23:51 | 26.41539 | -80.44256 | 23742 ft | 325 kts | 296° |
| 2026-05-03 23:51 | 26.42748 | -80.46398 | 24520 ft | 329 kts | 295° |
| 2026-05-03 23:51 | 26.44000 | -80.48617 | 25339 ft | 332 kts | 295° |
| 2026-05-03 23:51 | 26.45241 | -80.50818 | 26075 ft | 336 kts | 295° |
| 2026-05-03 23:52 | 26.46507 | -80.53061 | 26779 ft | 341 kts | 295° |
| 2026-05-03 23:52 | 26.47996 | -80.55145 | 27518 ft | 353 kts | 308° |
| 2026-05-03 23:52 | 26.50016 | -80.56795 | 28192 ft | 372 kts | 323° |
| 2026-05-03 23:52 | 26.52533 | -80.57812 | 28761 ft | 390 kts | 335° |
| 2026-05-03 23:53 | 26.55168 | -80.58638 | 29300 ft | 396 kts | 335° |
| 2026-05-03 23:53 | 26.57827 | -80.59478 | 29870 ft | 399 kts | 334° |
| 2026-05-03 23:53 | 26.60507 | -80.60326 | 30459 ft | 401 kts | 334° |
| 2026-05-03 23:53 | 26.63207 | -80.61182 | 31007 ft | 403 kts | 334° |
| 2026-05-03 23:54 | 26.65922 | -80.62042 | 31523 ft | 406 kts | 333° |
| 2026-05-03 23:54 | 26.68646 | -80.62909 | 31924 ft | 411 kts | 333° |
| 2026-05-03 23:54 | 26.71410 | -80.63786 | 32418 ft | 413 kts | 333° |
| 2026-05-03 23:54 | 26.74188 | -80.64669 | 32859 ft | 416 kts | 333° |
| 2026-05-03 23:55 | 26.77011 | -80.65566 | 33333 ft | 418 kts | 332° |
| 2026-05-03 23:55 | 26.79809 | -80.66457 | 33811 ft | 421 kts | 332° |
| 2026-05-03 23:55 | 26.82632 | -80.67355 | 34371 ft | 421 kts | 332° |
| 2026-05-03 23:55 | 26.85430 | -80.68242 | 35022 ft | 418 kts | 332° |
| 2026-05-03 23:56 | 26.88210 | -80.69124 | 35627 ft | 415 kts | 331° |
| 2026-05-03 23:56 | 26.91019 | -80.70026 | 36160 ft | 413 kts | 330° |
| 2026-05-03 23:56 | 26.93719 | -80.71013 | 36668 ft | 408 kts | 328° |
| 2026-05-03 23:56 | 26.96410 | -80.72030 | 37169 ft | 407 kts | 328° |
| 2026-05-03 23:57 | 26.99099 | -80.73048 | 37508 ft | 409 kts | 328° |
| 2026-05-03 23:57 | 27.01793 | -80.74069 | 37852 ft | 410 kts | 328° |
| 2026-05-03 23:57 | 27.04485 | -80.75087 | 38306 ft | 408 kts | 327° |
| 2026-05-03 23:57 | 27.07171 | -80.76102 | 38712 ft | 407 kts | 327° |
| 2026-05-03 23:58 | 27.09875 | -80.77127 | 39060 ft | 408 kts | 327° |
| 2026-05-03 23:58 | 27.12597 | -80.78158 | 39482 ft | 406 kts | 327° |
| 2026-05-03 23:58 | 27.15246 | -80.79157 | 39990 ft | 402 kts | 327° |
| 2026-05-03 23:58 | 27.17903 | -80.80169 | 40049 ft | 407 kts | 327° |
| 2026-05-03 23:59 | 27.23364 | -80.82254 | 40056 ft | 419 kts | 327° |
| 2026-05-03 23:59 | 27.28979 | -80.84395 | 40051 ft | 430 kts | 328° |
| 2026-05-04 00:00 | 27.34694 | -80.86629 | 40054 ft | 436 kts | 327° |
| 2026-05-04 00:00 | 27.40435 | -80.88995 | 40051 ft | 444 kts | 327° |
| 2026-05-04 00:01 | 27.46315 | -80.91416 | 40054 ft | 450 kts | 327° |
| 2026-05-04 00:01 | 27.52240 | -80.93858 | 40062 ft | 457 kts | 327° |
| 2026-05-04 00:02 | 27.58265 | -80.96344 | 40055 ft | 465 kts | 327° |
| 2026-05-04 00:02 | 27.64409 | -80.98880 | 40057 ft | 471 kts | 327° |
| 2026-05-04 00:03 | 27.70615 | -81.01442 | 40068 ft | 473 kts | 327° |
| 2026-05-04 00:03 | 27.76788 | -81.03990 | 40069 ft | 472 kts | 327° |
| 2026-05-04 00:04 | 27.82984 | -81.06553 | 40068 ft | 471 kts | 327° |
| 2026-05-04 00:04 | 27.89149 | -81.09108 | 40066 ft | 472 kts | 327° |
| 2026-05-04 00:05 | 27.95310 | -81.11665 | 40065 ft | 472 kts | 327° |
| 2026-05-04 00:05 | 28.01507 | -81.14239 | 40059 ft | 472 kts | 326° |
| 2026-05-04 00:06 | 28.07515 | -81.17066 | 40071 ft | 463 kts | 322° |
| 2026-05-04 00:06 | 28.13370 | -81.20092 | 40059 ft | 462 kts | 322° |
| 2026-05-04 00:07 | 28.18947 | -81.22974 | 40050 ft | 463 kts | 322° |
| 2026-05-04 00:07 | 28.24831 | -81.26015 | 40060 ft | 464 kts | 322° |
| 2026-05-04 00:08 | 28.29044 | -81.28194 | 40060 ft | 465 kts | 322° |
| 2026-05-04 00:08 | 28.34450 | -81.30980 | 40060 ft | 465 kts | 322° |
| 2026-05-04 00:09 | 28.40273 | -81.33962 | 40059 ft | 466 kts | 322° |
| 2026-05-04 00:09 | 28.43520 | -81.35622 | 40127 ft | 465 kts | 322° |
| 2026-05-04 00:10 | 28.45526 | -81.36655 | 40105 ft | 465 kts | 322° |
| 2026-05-04 00:11 | 28.55977 | -81.42008 | 40061 ft | 465 kts | 322° |
| 2026-05-04 00:11 | 28.61884 | -81.45038 | 40062 ft | 466 kts | 322° |
| 2026-05-04 00:12 | 28.68060 | -81.48209 | 40065 ft | 465 kts | 322° |
| 2026-05-04 00:12 | 28.74065 | -81.51297 | 40058 ft | 466 kts | 322° |
| 2026-05-04 00:13 | 28.80417 | -81.54566 | 40070 ft | 466 kts | 322° |
| 2026-05-04 00:13 | 28.86455 | -81.57680 | 40077 ft | 467 kts | 321° |
| 2026-05-04 00:14 | 28.92689 | -81.60332 | 40072 ft | 488 kts | 331° |
| 2026-05-04 00:14 | 28.96132 | -81.61159 | 40084 ft | 503 kts | 338° |
| 2026-05-04 00:14 | 28.99639 | -81.61574 | 40085 ft | 511 kts | 342° |
| 2026-05-04 00:15 | 29.06742 | -81.62211 | 40090 ft | 511 kts | 342° |
| 2026-05-04 00:15 | 29.13045 | -81.62780 | 40076 ft | 509 kts | 342° |
| 2026-05-04 00:16 | 29.20303 | -81.63440 | 40081 ft | 507 kts | 342° |
| 2026-05-04 00:16 | 29.27464 | -81.64095 | 40073 ft | 506 kts | 342° |
| 2026-05-04 00:17 | 29.34448 | -81.64735 | 40072 ft | 506 kts | 342° |
| 2026-05-04 00:17 | 29.41527 | -81.65388 | 40070 ft | 508 kts | 342° |
| 2026-05-04 00:18 | 29.48581 | -81.66035 | 40087 ft | 507 kts | 342° |
| 2026-05-04 00:18 | 29.55592 | -81.66681 | 40088 ft | 506 kts | 342° |
| 2026-05-04 00:19 | 29.62620 | -81.67330 | 40087 ft | 506 kts | 342° |
| 2026-05-04 00:19 | 29.69650 | -81.67981 | 40091 ft | 506 kts | 342° |
| 2026-05-04 00:20 | 29.76669 | -81.68632 | 40090 ft | 507 kts | 342° |
| 2026-05-04 00:20 | 29.83705 | -81.69284 | 40096 ft | 507 kts | 342° |
| 2026-05-04 00:21 | 29.90741 | -81.69938 | 40098 ft | 507 kts | 342° |
| 2026-05-04 00:21 | 29.97782 | -81.70592 | 40104 ft | 505 kts | 343° |
| 2026-05-04 00:22 | 30.04826 | -81.71249 | 40101 ft | 505 kts | 343° |
| 2026-05-04 00:22 | 30.11813 | -81.71901 | 40100 ft | 505 kts | 343° |
| 2026-05-04 00:23 | 30.18815 | -81.72555 | 40107 ft | 505 kts | 343° |
| 2026-05-04 00:23 | 30.25859 | -81.73216 | 40108 ft | 507 kts | 343° |
| 2026-05-04 00:24 | 30.32887 | -81.73874 | 40110 ft | 506 kts | 343° |
| 2026-05-04 00:24 | 30.39911 | -81.74533 | 40112 ft | 506 kts | 343° |
| 2026-05-04 00:25 | 30.46947 | -81.75193 | 40130 ft | 505 kts | 343° |
| 2026-05-04 00:25 | 30.53964 | -81.75854 | 40105 ft | 505 kts | 343° |
| 2026-05-04 00:26 | 30.60880 | -81.76901 | 40077 ft | 489 kts | 335° |
| 2026-05-04 00:26 | 30.64103 | -81.77983 | 40120 ft | 478 kts | 328° |
| 2026-05-04 00:26 | 30.67134 | -81.79433 | 40093 ft | 468 kts | 322° |
| 2026-05-04 00:27 | 30.72954 | -81.82784 | 40111 ft | 467 kts | 321° |
| 2026-05-04 00:27 | 30.78813 | -81.86176 | 40104 ft | 468 kts | 321° |
| 2026-05-04 00:28 | 30.84668 | -81.89568 | 40094 ft | 469 kts | 322° |
| 2026-05-04 00:28 | 30.90497 | -81.92950 | 40091 ft | 468 kts | 322° |
| 2026-05-04 00:29 | 30.96338 | -81.96345 | 40093 ft | 469 kts | 322° |
| 2026-05-04 00:29 | 31.02187 | -81.99748 | 40090 ft | 468 kts | 322° |
| 2026-05-04 00:30 | 31.08025 | -82.03150 | 40091 ft | 468 kts | 322° |
| 2026-05-04 00:30 | 31.13861 | -82.06556 | 40090 ft | 468 kts | 322° |
| 2026-05-04 00:31 | 31.19676 | -82.09953 | 40109 ft | 467 kts | 322° |
| 2026-05-04 00:31 | 31.25464 | -82.13340 | 40093 ft | 466 kts | 322° |
| 2026-05-04 00:32 | 31.31273 | -82.16744 | 40094 ft | 466 kts | 322° |
| 2026-05-04 00:32 | 31.37078 | -82.20152 | 40098 ft | 466 kts | 322° |
| 2026-05-04 00:33 | 31.45751 | -82.25249 | 40094 ft | 465 kts | 322° |
| 2026-05-04 00:34 | 31.51555 | -82.28667 | 40083 ft | 465 kts | 322° |
| 2026-05-04 00:34 | 31.57349 | -82.32085 | 40095 ft | 465 kts | 323° |
| 2026-05-04 00:35 | 31.63149 | -82.35509 | 40097 ft | 464 kts | 323° |
| 2026-05-04 00:35 | 31.68907 | -82.38914 | 40097 ft | 464 kts | 323° |
| 2026-05-04 00:36 | 31.74698 | -82.42345 | 40096 ft | 465 kts | 323° |
| 2026-05-04 00:36 | 31.80491 | -82.45780 | 40093 ft | 465 kts | 323° |
| 2026-05-04 00:37 | 31.86284 | -82.49221 | 40097 ft | 464 kts | 323° |
| 2026-05-04 00:37 | 31.92019 | -82.52631 | 40099 ft | 464 kts | 323° |
| 2026-05-04 00:38 | 31.97511 | -82.56453 | 40102 ft | 449 kts | 313° |
| 2026-05-04 00:38 | 32.02263 | -82.61224 | 40087 ft | 446 kts | 310° |
| 2026-05-04 00:38 | 32.04575 | -82.63578 | 39760 ft | 439 kts | 310° |
| 2026-05-04 00:39 | 32.06887 | -82.65932 | 39230 ft | 434 kts | 310° |
| 2026-05-04 00:39 | 32.09158 | -82.68246 | 38687 ft | 429 kts | 309° |
| 2026-05-04 00:39 | 32.11403 | -82.70538 | 38119 ft | 424 kts | 310° |
| 2026-05-04 00:39 | 32.13629 | -82.72811 | 37571 ft | 419 kts | 309° |
| 2026-05-04 00:40 | 32.15813 | -82.75043 | 37023 ft | 415 kts | 309° |
| 2026-05-04 00:40 | 32.17993 | -82.77274 | 36449 ft | 412 kts | 309° |
| 2026-05-04 00:40 | 32.20146 | -82.79478 | 35944 ft | 406 kts | 309° |
| 2026-05-04 00:40 | 32.22261 | -82.81644 | 35428 ft | 404 kts | 309° |
| 2026-05-04 00:41 | 32.24375 | -82.83815 | 34859 ft | 404 kts | 310° |
| 2026-05-04 00:41 | 32.26484 | -82.85981 | 34331 ft | 402 kts | 310° |
| 2026-05-04 00:41 | 32.28612 | -82.88167 | 33768 ft | 401 kts | 310° |
| 2026-05-04 00:41 | 32.30680 | -82.90292 | 33255 ft | 397 kts | 310° |
| 2026-05-04 00:42 | 32.32762 | -82.92432 | 32729 ft | 394 kts | 310° |
| 2026-05-04 00:42 | 32.34806 | -82.94535 | 32223 ft | 390 kts | 311° |
| 2026-05-04 00:42 | 32.36857 | -82.96645 | 31696 ft | 387 kts | 311° |
| 2026-05-04 00:42 | 32.38871 | -82.98718 | 31190 ft | 383 kts | 311° |
| 2026-05-04 00:43 | 32.40883 | -83.00787 | 30682 ft | 380 kts | 311° |
| 2026-05-04 00:43 | 32.42883 | -83.02845 | 30185 ft | 377 kts | 312° |
| 2026-05-04 00:43 | 32.44839 | -83.04860 | 29676 ft | 374 kts | 312° |
| 2026-05-04 00:43 | 32.46800 | -83.06879 | 29186 ft | 370 kts | 312° |
| 2026-05-04 00:44 | 32.48729 | -83.08868 | 28698 ft | 367 kts | 313° |
| 2026-05-04 00:44 | 32.50637 | -83.10836 | 28210 ft | 363 kts | 313° |
| 2026-05-04 00:44 | 32.52532 | -83.12793 | 27731 ft | 360 kts | 313° |
| 2026-05-04 00:44 | 32.54413 | -83.14735 | 27257 ft | 356 kts | 313° |
| 2026-05-04 00:45 | 32.56279 | -83.16663 | 26787 ft | 352 kts | 314° |
| 2026-05-04 00:45 | 32.58134 | -83.18581 | 26310 ft | 350 kts | 314° |
| 2026-05-04 00:45 | 32.59956 | -83.20468 | 25856 ft | 346 kts | 314° |
| 2026-05-04 00:45 | 32.61760 | -83.22340 | 25395 ft | 343 kts | 314° |
| 2026-05-04 00:46 | 32.63549 | -83.24200 | 24947 ft | 343 kts | 314° |
| 2026-05-04 00:46 | 32.65353 | -83.26076 | 24486 ft | 342 kts | 314° |
| 2026-05-04 00:46 | 32.67125 | -83.27917 | 24033 ft | 340 kts | 315° |
| 2026-05-04 00:46 | 32.68906 | -83.29769 | 23580 ft | 338 kts | 315° |
| 2026-05-04 00:47 | 32.70664 | -83.31598 | 23132 ft | 335 kts | 315° |
| 2026-05-04 00:47 | 32.72400 | -83.33404 | 22694 ft | 332 kts | 315° |
| 2026-05-04 00:47 | 32.74138 | -83.35214 | 22250 ft | 329 kts | 315° |
| 2026-05-04 00:47 | 32.75843 | -83.36992 | 21820 ft | 327 kts | 316° |
| 2026-05-04 00:48 | 32.77556 | -83.38777 | 21382 ft | 326 kts | 316° |
| 2026-05-04 00:48 | 32.79256 | -83.40550 | 20956 ft | 324 kts | 315° |
| 2026-05-04 00:48 | 32.80941 | -83.42310 | 20526 ft | 323 kts | 316° |
| 2026-05-04 00:48 | 32.82626 | -83.44068 | 20096 ft | 321 kts | 316° |
| 2026-05-04 00:49 | 32.84297 | -83.45814 | 19671 ft | 319 kts | 316° |
| 2026-05-04 00:49 | 32.85948 | -83.47540 | 19255 ft | 317 kts | 316° |
| 2026-05-04 00:49 | 32.87600 | -83.49268 | 18830 ft | 315 kts | 316° |
| 2026-05-04 00:49 | 32.89256 | -83.51000 | 18408 ft | 313 kts | 316° |
| 2026-05-04 00:50 | 32.90883 | -83.52703 | 17994 ft | 311 kts | 316° |
| 2026-05-04 00:50 | 32.92497 | -83.54394 | 17593 ft | 309 kts | 316° |
| 2026-05-04 00:50 | 32.94099 | -83.56072 | 17182 ft | 308 kts | 316° |
| 2026-05-04 00:50 | 32.95714 | -83.57764 | 16768 ft | 305 kts | 316° |
| 2026-05-04 00:51 | 32.97303 | -83.59428 | 16356 ft | 304 kts | 316° |
| 2026-05-04 00:51 | 32.98885 | -83.61086 | 15822 ft | 304 kts | 317° |
| 2026-05-04 00:51 | 33.00475 | -83.62752 | 15468 ft | 298 kts | 317° |
| 2026-05-04 00:51 | 33.02020 | -83.64372 | 15056 ft | 296 kts | 317° |
| 2026-05-04 00:52 | 33.03569 | -83.65997 | 14678 ft | 295 kts | 317° |
| 2026-05-04 00:52 | 33.05097 | -83.67602 | 14289 ft | 294 kts | 317° |
| 2026-05-04 00:52 | 33.06629 | -83.69211 | 13897 ft | 292 kts | 317° |
| 2026-05-04 00:52 | 33.08168 | -83.70829 | 13508 ft | 291 kts | 317° |
| 2026-05-04 00:53 | 33.09668 | -83.72405 | 13127 ft | 289 kts | 317° |
| 2026-05-04 00:53 | 33.11183 | -83.73999 | 12749 ft | 287 kts | 317° |
| 2026-05-04 00:53 | 33.12669 | -83.75563 | 12370 ft | 285 kts | 317° |
| 2026-05-04 00:53 | 33.14161 | -83.77134 | 11988 ft | 283 kts | 318° |
| 2026-05-04 00:54 | 33.15638 | -83.78693 | 11617 ft | 282 kts | 318° |
| 2026-05-04 00:54 | 33.17094 | -83.80232 | 11243 ft | 280 kts | 318° |
| 2026-05-04 00:54 | 33.18561 | -83.81786 | 10879 ft | 279 kts | 317° |
| 2026-05-04 00:54 | 33.19957 | -83.83386 | 10493 ft | 277 kts | 315° |
| 2026-05-04 00:55 | 33.21312 | -83.85001 | 10140 ft | 275 kts | 315° |
| 2026-05-04 00:55 | 33.22662 | -83.86608 | 9773 ft | 274 kts | 315° |
| 2026-05-04 00:55 | 33.23997 | -83.88198 | 9411 ft | 273 kts | 315° |
| 2026-05-04 00:55 | 33.25348 | -83.89807 | 9051 ft | 271 kts | 315° |
| 2026-05-04 00:56 | 33.26683 | -83.91399 | 8690 ft | 271 kts | 315° |
| 2026-05-04 00:56 | 33.28022 | -83.92995 | 8327 ft | 271 kts | 315° |
| 2026-05-04 00:56 | 33.29361 | -83.94591 | 7967 ft | 270 kts | 315° |
| 2026-05-04 00:56 | 33.30682 | -83.96172 | 7644 ft | 267 kts | 315° |
| 2026-05-04 00:57 | 33.31994 | -83.97742 | 7494 ft | 266 kts | 315° |
| 2026-05-04 00:57 | 33.33294 | -83.99298 | 7463 ft | 268 kts | 315° |
| 2026-05-04 00:57 | 33.34636 | -84.00905 | 7268 ft | 271 kts | 315° |
| 2026-05-04 00:57 | 33.36089 | -84.02284 | 7104 ft | 268 kts | 332° |
| 2026-05-04 00:58 | 33.37880 | -84.02909 | 6922 ft | 269 kts | 354° |
| 2026-05-04 00:58 | 33.39758 | -84.02967 | 6719 ft | 268 kts | 358° |
| 2026-05-04 00:58 | 33.41635 | -84.03002 | 6555 ft | 269 kts | 358° |
| 2026-05-04 00:58 | 33.43507 | -84.03041 | 6375 ft | 268 kts | 358° |
| 2026-05-04 00:59 | 33.45359 | -84.03078 | 6202 ft | 267 kts | 358° |
| 2026-05-04 00:59 | 33.47228 | -84.03145 | 6021 ft | 266 kts | 353° |
| 2026-05-04 00:59 | 33.48915 | -84.03934 | 5868 ft | 263 kts | 321° |
| 2026-05-04 00:59 | 33.50198 | -84.05527 | 5713 ft | 264 kts | 312° |
| 2026-05-04 01:00 | 33.51424 | -84.07163 | 5542 ft | 264 kts | 312° |
| 2026-05-04 01:00 | 33.52670 | -84.08797 | 5383 ft | 263 kts | 313° |
| 2026-05-04 01:00 | 33.53910 | -84.10392 | 5201 ft | 262 kts | 313° |
| 2026-05-04 01:00 | 33.55175 | -84.11989 | 5055 ft | 262 kts | 314° |
| 2026-05-04 01:01 | 33.56446 | -84.13563 | 4861 ft | 261 kts | 314° |
| 2026-05-04 01:01 | 33.57708 | -84.15098 | 4712 ft | 251 kts | 315° |
| 2026-05-04 01:01 | 33.58910 | -84.16530 | 4543 ft | 239 kts | 315° |
| 2026-05-04 01:01 | 33.60070 | -84.17889 | 4403 ft | 226 kts | 316° |
| 2026-05-04 01:02 | 33.61182 | -84.19169 | 4259 ft | 214 kts | 316° |
| 2026-05-04 01:02 | 33.62224 | -84.20332 | 4128 ft | 203 kts | 317° |
| 2026-05-04 01:02 | 33.63038 | -84.21716 | 3999 ft | 199 kts | 290° |
| 2026-05-04 01:02 | 33.63173 | -84.23305 | 3931 ft | 191 kts | 271° |
| 2026-05-04 01:03 | 33.63160 | -84.24882 | 3680 ft | 184 kts | 272° |
| 2026-05-04 01:03 | 33.63153 | -84.26358 | 3436 ft | 171 kts | 272° |
| 2026-05-04 01:03 | 33.63145 | -84.27748 | 3204 ft | 159 kts | 272° |
| 2026-05-04 01:03 | 33.63143 | -84.29081 | 3012 ft | 160 kts | 272° |
| 2026-05-04 01:04 | 33.63144 | -84.30402 | 2885 ft | 160 kts | 272° |
| 2026-05-04 01:04 | 33.63137 | -84.31737 | 2730 ft | 160 kts | 271° |
| 2026-05-04 01:04 | 33.63137 | -84.33073 | 2543 ft | 161 kts | 272° |
| 2026-05-04 01:04 | 33.63151 | -84.34367 | 2265 ft | 147 kts | 271° |
| 2026-05-04 01:05 | 33.63159 | -84.35503 | 2010 ft | 128 kts | 271° |
| 2026-05-04 01:05 | 33.63165 | -84.36552 | 1834 ft | 122 kts | 271° |
| 2026-05-04 01:05 | 33.63169 | -84.37573 | 1679 ft | 120 kts | 271° |
| 2026-05-04 01:05 | 33.63168 | -84.38567 | 1534 ft | 120 kts | 271° |
| 2026-05-04 01:06 | 33.63171 | -84.39561 | 1393 ft | 119 kts | 270° |
| 2026-05-04 01:06 | 33.63173 | -84.40572 | 1246 ft | 120 kts | 271° |
| 2026-05-04 01:06 | 33.63177 | -84.41568 | 1083 ft | 119 kts | 271° |
| 2026-05-04 01:06 | 33.63184 | -84.42554 | 996 ft | 111 kts | 271° |
| 2026-05-04 01:07 | 33.63182 | -84.43349 | 1007 ft | 74 kts | 270° |
| 2026-05-04 01:07 | 33.63183 | -84.43780 | 1010 ft | 42 kts | 270° |
| 2026-05-04 01:07 | 33.63185 | -84.44077 | 1015 ft | 30 kts | 270° |
| 2026-05-04 01:07 | 33.63184 | -84.44371 | 1017 ft | 43 kts | 271° |
| 2026-05-04 01:08 | 33.63184 | -84.44667 | 1013 ft | 16 kts | 270° |
| 2026-05-04 01:08 | 33.63173 | -84.44782 | 1011 ft | 7 kts | 189° |
| 2026-05-04 01:08 | 33.63161 | -84.44769 | 1011 ft | 4 kts | 358° |
| 2026-05-04 01:08 | 33.63255 | -84.44781 | 1013 ft | 17 kts | 359° |
| 2026-05-04 01:09 | 33.63374 | -84.44782 | 1014 ft | 5 kts | 1° |
| 2026-05-04 01:09 | 33.63376 | -84.44782 | 1014 ft | 0 kts | 1° |
| 2026-05-04 01:09 | 33.63385 | -84.44781 | 1014 ft | 2 kts | 1° |
| 2026-05-04 01:09 | 33.63449 | -84.44782 | 1014 ft | 14 kts | 359° |
| 2026-05-04 01:10 | 33.63541 | -84.44782 | 1016 ft | 13 kts | 4° |
| 2026-05-04 01:10 | 33.63581 | -84.44689 | 1019 ft | 15 kts | 89° |
| 2026-05-04 01:10 | 33.63581 | -84.44546 | 1020 ft | 19 kts | 90° |
| 2026-05-04 01:10 | 33.63581 | -84.44346 | 1020 ft | 31 kts | 90° |
| 2026-05-04 01:11 | 33.63582 | -84.44057 | 1017 ft | 36 kts | 91° |
| 2026-05-04 01:11 | 33.63582 | -84.43740 | 1013 ft | 39 kts | 90° |
| 2026-05-04 01:11 | 33.63582 | -84.43413 | 1010 ft | 42 kts | 89° |
| 2026-05-04 01:11 | 33.63582 | -84.43050 | 1007 ft | 44 kts | 91° |
| 2026-05-04 01:12 | 33.63582 | -84.42673 | 1000 ft | 42 kts | 90° |
| 2026-05-04 01:12 | 33.63583 | -84.42465 | 996 ft | 10 kts | 90° |
| 2026-05-04 01:12 | 33.63583 | -84.42385 | 993 ft | 14 kts | 90° |
| 2026-05-04 01:12 | 33.63604 | -84.42245 | 988 ft | 11 kts | 26° |
| 2026-05-04 01:13 | 33.63739 | -84.42234 | 987 ft | 25 kts | 360° |
| 2026-05-04 01:13 | 33.63926 | -84.42244 | 987 ft | 28 kts | 0° |
| 2026-05-04 01:13 | 33.64142 | -84.42242 | 985 ft | 33 kts | 358° |
| 2026-05-04 01:13 | 33.64386 | -84.42239 | 981 ft | 36 kts | 359° |
| 2026-05-04 01:14 | 33.64645 | -84.42241 | 981 ft | 37 kts | 0° |
| 2026-05-04 01:14 | 33.64911 | -84.42241 | 982 ft | 38 kts | 358° |
| 2026-05-04 01:14 | 33.65115 | -84.42221 | 982 ft | 13 kts | 356° |
| 2026-05-04 01:14 | 33.65162 | -84.42311 | 984 ft | 12 kts | 277° |
| 2026-05-04 01:15 | 33.65216 | -84.42349 | 985 ft | 2 kts | 4° |